sensor_id;sensor_type;location;lat;lon;timestamp;temperature;humidity
11597;DHT22;5854;48.072;16.286;2022-09-14T00:00:50;18.90;63.60
11597;DHT22;5854;48.072;16.286;2022-09-14T00:03:18;18.90;63.20
11597;DHT22;5854;48.072;16.286;2022-09-14T00:05:47;18.90;62.40
11597;DHT22;5854;48.072;16.286;2022-09-14T00:08:15;18.80;63.20
11597;DHT22;5854;48.072;16.286;2022-09-14T00:10:43;18.90;62.70
11597;DHT22;5854;48.072;16.286;2022-09-14T00:13:12;18.80;63.00
11597;DHT22;5854;48.072;16.286;2022-09-14T00:15:41;18.80;63.10
11597;DHT22;5854;48.072;16.286;2022-09-14T00:18:10;18.80;63.00
11597;DHT22;5854;48.072;16.286;2022-09-14T00:20:38;18.70;63.50
11597;DHT22;5854;48.072;16.286;2022-09-14T00:23:06;18.60;64.10
11597;DHT22;5854;48.072;16.286;2022-09-14T00:25:33;18.70;63.50
11597;DHT22;5854;48.072;16.286;2022-09-14T00:28:01;18.70;63.00
11597;DHT22;5854;48.072;16.286;2022-09-14T00:30:29;18.80;62.40
11597;DHT22;5854;48.072;16.286;2022-09-14T00:32:57;18.90;62.50
11597;DHT22;5854;48.072;16.286;2022-09-14T00:35:24;18.90;62.20
11597;DHT22;5854;48.072;16.286;2022-09-14T00:37:51;19.00;61.90
11597;DHT22;5854;48.072;16.286;2022-09-14T00:40:21;18.90;62.00
11597;DHT22;5854;48.072;16.286;2022-09-14T00:42:49;18.90;62.00
11597;DHT22;5854;48.072;16.286;2022-09-14T00:45:18;18.80;64.40
11597;DHT22;5854;48.072;16.286;2022-09-14T00:47:47;18.80;62.70
11597;DHT22;5854;48.072;16.286;2022-09-14T00:50:16;18.80;62.50
11597;DHT22;5854;48.072;16.286;2022-09-14T00:52:46;18.80;62.00
11597;DHT22;5854;48.072;16.286;2022-09-14T00:55:17;18.80;62.10
11597;DHT22;5854;48.072;16.286;2022-09-14T00:57:49;18.80;62.00
11597;DHT22;5854;48.072;16.286;2022-09-14T01:00:23;18.80;62.00
11597;DHT22;5854;48.072;16.286;2022-09-14T01:02:51;18.70;62.20
11597;DHT22;5854;48.072;16.286;2022-09-14T01:05:22;18.70;62.20
11597;DHT22;5854;48.072;16.286;2022-09-14T01:08:30;18.70;62.20
11597;DHT22;5854;48.072;16.286;2022-09-14T01:11:30;18.70;62.10
11597;DHT22;5854;48.072;16.286;2022-09-14T01:14:10;18.60;62.20
11597;DHT22;5854;48.072;16.286;2022-09-14T01:16:48;18.60;62.10
11597;DHT22;5854;48.072;16.286;2022-09-14T01:19:34;18.60;62.30
11597;DHT22;5854;48.072;16.286;2022-09-14T01:22:13;18.60;62.40
11597;DHT22;5854;48.072;16.286;2022-09-14T01:24:45;18.60;62.60
11597;DHT22;5854;48.072;16.286;2022-09-14T01:27:22;18.40;62.60
11597;DHT22;5854;48.072;16.286;2022-09-14T01:30:00;18.40;62.80
11597;DHT22;5854;48.072;16.286;2022-09-14T01:32:33;18.40;62.90
11597;DHT22;5854;48.072;16.286;2022-09-14T01:35:08;18.40;62.90
11597;DHT22;5854;48.072;16.286;2022-09-14T01:37:42;18.40;62.70
11597;DHT22;5854;48.072;16.286;2022-09-14T01:40:15;18.40;62.70
11597;DHT22;5854;48.072;16.286;2022-09-14T01:42:47;18.40;62.70
11597;DHT22;5854;48.072;16.286;2022-09-14T01:45:17;18.40;63.10
11597;DHT22;5854;48.072;16.286;2022-09-14T01:47:49;18.40;63.00
11597;DHT22;5854;48.072;16.286;2022-09-14T01:50:25;18.40;62.90
11597;DHT22;5854;48.072;16.286;2022-09-14T01:52:58;18.20;64.00
11597;DHT22;5854;48.072;16.286;2022-09-14T01:55:32;18.00;66.60
11597;DHT22;5854;48.072;16.286;2022-09-14T01:58:09;18.00;64.90
11597;DHT22;5854;48.072;16.286;2022-09-14T02:00:42;18.20;64.30
11597;DHT22;5854;48.072;16.286;2022-09-14T02:03:13;18.30;63.90
11597;DHT22;5854;48.072;16.286;2022-09-14T02:05:48;18.20;64.50
11597;DHT22;5854;48.072;16.286;2022-09-14T02:08:17;18.20;64.10
11597;DHT22;5854;48.072;16.286;2022-09-14T02:10:44;18.30;63.80
11597;DHT22;5854;48.072;16.286;2022-09-14T02:13:13;18.30;63.70
11597;DHT22;5854;48.072;16.286;2022-09-14T02:15:40;18.30;63.50
11597;DHT22;5854;48.072;16.286;2022-09-14T02:18:07;18.40;63.70
11597;DHT22;5854;48.072;16.286;2022-09-14T02:20:38;18.40;63.40
11597;DHT22;5854;48.072;16.286;2022-09-14T02:23:09;18.30;63.20
11597;DHT22;5854;48.072;16.286;2022-09-14T02:25:36;18.30;63.90
11597;DHT22;5854;48.072;16.286;2022-09-14T02:28:06;18.30;63.40
11597;DHT22;5854;48.072;16.286;2022-09-14T02:30:40;18.40;63.30
11597;DHT22;5854;48.072;16.286;2022-09-14T02:33:15;18.40;63.20
11597;DHT22;5854;48.072;16.286;2022-09-14T02:35:50;18.40;63.10
11597;DHT22;5854;48.072;16.286;2022-09-14T02:38:25;18.40;63.80
11597;DHT22;5854;48.072;16.286;2022-09-14T02:41:02;18.30;63.50
11597;DHT22;5854;48.072;16.286;2022-09-14T02:43:36;18.20;64.50
11597;DHT22;5854;48.072;16.286;2022-09-14T02:46:15;18.20;63.70
11597;DHT22;5854;48.072;16.286;2022-09-14T02:48:51;18.30;63.20
11597;DHT22;5854;48.072;16.286;2022-09-14T02:51:27;18.30;63.10
11597;DHT22;5854;48.072;16.286;2022-09-14T02:53:59;18.20;64.50
11597;DHT22;5854;48.072;16.286;2022-09-14T02:56:30;18.10;65.00
11597;DHT22;5854;48.072;16.286;2022-09-14T02:58:58;18.10;64.20
11597;DHT22;5854;48.072;16.286;2022-09-14T03:01:26;18.10;64.00
11597;DHT22;5854;48.072;16.286;2022-09-14T03:03:54;18.10;64.50
11597;DHT22;5854;48.072;16.286;2022-09-14T03:06:21;17.90;66.00
11597;DHT22;5854;48.072;16.286;2022-09-14T03:08:48;17.90;64.80
11597;DHT22;5854;48.072;16.286;2022-09-14T03:11:17;18.00;64.50
11597;DHT22;5854;48.072;16.286;2022-09-14T03:13:44;18.10;64.50
11597;DHT22;5854;48.072;16.286;2022-09-14T03:16:12;18.10;63.90
11597;DHT22;5854;48.072;16.286;2022-09-14T03:18:42;18.10;63.90
11597;DHT22;5854;48.072;16.286;2022-09-14T03:21:12;18.20;63.50
11597;DHT22;5854;48.072;16.286;2022-09-14T03:23:41;18.00;67.20
11597;DHT22;5854;48.072;16.286;2022-09-14T03:26:12;18.00;65.00
11597;DHT22;5854;48.072;16.286;2022-09-14T03:28:40;18.00;64.50
11597;DHT22;5854;48.072;16.286;2022-09-14T03:31:10;18.10;64.20
11597;DHT22;5854;48.072;16.286;2022-09-14T03:33:39;18.10;64.20
11597;DHT22;5854;48.072;16.286;2022-09-14T03:36:12;17.90;67.00
11597;DHT22;5854;48.072;16.286;2022-09-14T03:38:42;18.00;64.60
11597;DHT22;5854;48.072;16.286;2022-09-14T03:41:10;18.00;64.10
11597;DHT22;5854;48.072;16.286;2022-09-14T03:43:38;18.00;64.20
11597;DHT22;5854;48.072;16.286;2022-09-14T03:46:06;18.10;64.00
11597;DHT22;5854;48.072;16.286;2022-09-14T03:48:34;17.80;68.40
11597;DHT22;5854;48.072;16.286;2022-09-14T03:51:02;17.90;65.20
11597;DHT22;5854;48.072;16.286;2022-09-14T03:53:32;17.80;66.40
11597;DHT22;5854;48.072;16.286;2022-09-14T03:55:59;17.90;64.80
11597;DHT22;5854;48.072;16.286;2022-09-14T03:58:30;18.00;64.30
11597;DHT22;5854;48.072;16.286;2022-09-14T04:01:03;18.00;65.60
11597;DHT22;5854;48.072;16.286;2022-09-14T04:03:31;17.80;67.80
11597;DHT22;5854;48.072;16.286;2022-09-14T04:05:59;17.90;65.10
11597;DHT22;5854;48.072;16.286;2022-09-14T04:08:31;18.00;65.10
11597;DHT22;5854;48.072;16.286;2022-09-14T04:10:59;18.00;63.90
11597;DHT22;5854;48.072;16.286;2022-09-14T04:13:27;18.00;63.60
11597;DHT22;5854;48.072;16.286;2022-09-14T04:15:57;18.10;63.60
11597;DHT22;5854;48.072;16.286;2022-09-14T04:18:25;18.10;63.90
11597;DHT22;5854;48.072;16.286;2022-09-14T04:20:54;18.00;64.50
11597;DHT22;5854;48.072;16.286;2022-09-14T04:23:23;18.00;63.70
11597;DHT22;5854;48.072;16.286;2022-09-14T04:25:52;17.90;67.30
11597;DHT22;5854;48.072;16.286;2022-09-14T04:28:20;17.80;70.00
11597;DHT22;5854;48.072;16.286;2022-09-14T04:30:56;17.80;67.00
11597;DHT22;5854;48.072;16.286;2022-09-14T04:33:25;17.80;65.70
11597;DHT22;5854;48.072;16.286;2022-09-14T04:35:58;17.90;65.20
11597;DHT22;5854;48.072;16.286;2022-09-14T04:38:32;17.90;68.60
11597;DHT22;5854;48.072;16.286;2022-09-14T04:41:04;17.80;71.80
11597;DHT22;5854;48.072;16.286;2022-09-14T04:43:32;17.80;65.70
11597;DHT22;5854;48.072;16.286;2022-09-14T04:46:01;17.80;67.20
11597;DHT22;5854;48.072;16.286;2022-09-14T04:48:29;17.80;69.20
11597;DHT22;5854;48.072;16.286;2022-09-14T04:51:00;17.80;65.90
11597;DHT22;5854;48.072;16.286;2022-09-14T04:53:28;17.80;69.80
11597;DHT22;5854;48.072;16.286;2022-09-14T04:55:59;17.80;66.30
11597;DHT22;5854;48.072;16.286;2022-09-14T04:58:28;17.80;67.70
11597;DHT22;5854;48.072;16.286;2022-09-14T05:01:00;17.80;66.50
11597;DHT22;5854;48.072;16.286;2022-09-14T05:03:28;17.80;72.10
11597;DHT22;5854;48.072;16.286;2022-09-14T05:06:00;17.80;66.60
11597;DHT22;5854;48.072;16.286;2022-09-14T05:08:27;17.90;65.40
11597;DHT22;5854;48.072;16.286;2022-09-14T05:10:55;17.90;68.60
11597;DHT22;5854;48.072;16.286;2022-09-14T05:13:25;17.90;67.50
11597;DHT22;5854;48.072;16.286;2022-09-14T05:15:52;17.90;68.00
11597;DHT22;5854;48.072;16.286;2022-09-14T05:18:19;17.90;65.50
11597;DHT22;5854;48.072;16.286;2022-09-14T05:20:46;17.80;67.80
11597;DHT22;5854;48.072;16.286;2022-09-14T05:23:14;17.80;66.40
11597;DHT22;5854;48.072;16.286;2022-09-14T05:25:41;17.80;66.50
11597;DHT22;5854;48.072;16.286;2022-09-14T05:28:08;17.90;72.20
11597;DHT22;5854;48.072;16.286;2022-09-14T05:30:39;17.80;72.40
11597;DHT22;5854;48.072;16.286;2022-09-14T05:33:06;17.80;67.00
11597;DHT22;5854;48.072;16.286;2022-09-14T05:35:33;17.90;67.80
11597;DHT22;5854;48.072;16.286;2022-09-14T05:38:00;18.00;65.70
11597;DHT22;5854;48.072;16.286;2022-09-14T05:40:27;18.00;68.20
11597;DHT22;5854;48.072;16.286;2022-09-14T05:42:56;18.00;65.40
11597;DHT22;5854;48.072;16.286;2022-09-14T05:45:23;18.00;65.50
11597;DHT22;5854;48.072;16.286;2022-09-14T05:47:51;18.00;67.00
11597;DHT22;5854;48.072;16.286;2022-09-14T05:50:18;18.10;64.70
11597;DHT22;5854;48.072;16.286;2022-09-14T05:52:46;18.10;65.20
11597;DHT22;5854;48.072;16.286;2022-09-14T05:55:13;18.10;68.80
11597;DHT22;5854;48.072;16.286;2022-09-14T05:57:40;18.10;66.50
11597;DHT22;5854;48.072;16.286;2022-09-14T06:00:09;18.10;65.60
11597;DHT22;5854;48.072;16.286;2022-09-14T06:02:37;18.20;66.10
11597;DHT22;5854;48.072;16.286;2022-09-14T06:05:06;18.20;71.10
11597;DHT22;5854;48.072;16.286;2022-09-14T06:07:33;18.20;66.90
11597;DHT22;5854;48.072;16.286;2022-09-14T06:10:00;18.30;65.20
11597;DHT22;5854;48.072;16.286;2022-09-14T06:12:27;18.30;68.50
11597;DHT22;5854;48.072;16.286;2022-09-14T06:14:54;18.30;63.80
11597;DHT22;5854;48.072;16.286;2022-09-14T06:17:21;18.30;64.40
11597;DHT22;5854;48.072;16.286;2022-09-14T06:19:49;18.30;63.80
11597;DHT22;5854;48.072;16.286;2022-09-14T06:22:17;18.40;67.20
11597;DHT22;5854;48.072;16.286;2022-09-14T06:24:44;18.40;64.50
11597;DHT22;5854;48.072;16.286;2022-09-14T06:27:11;18.40;65.20
11597;DHT22;5854;48.072;16.286;2022-09-14T06:29:39;18.40;63.30
11597;DHT22;5854;48.072;16.286;2022-09-14T06:32:07;18.30;64.30
11597;DHT22;5854;48.072;16.286;2022-09-14T06:34:34;18.30;67.40
11597;DHT22;5854;48.072;16.286;2022-09-14T06:37:01;18.30;66.10
11597;DHT22;5854;48.072;16.286;2022-09-14T06:39:30;18.30;65.50
11597;DHT22;5854;48.072;16.286;2022-09-14T06:41:57;18.30;65.50
11597;DHT22;5854;48.072;16.286;2022-09-14T06:44:24;18.40;69.10
11597;DHT22;5854;48.072;16.286;2022-09-14T06:46:51;18.30;67.70
11597;DHT22;5854;48.072;16.286;2022-09-14T06:49:18;18.30;69.50
11597;DHT22;5854;48.072;16.286;2022-09-14T06:51:48;18.30;70.40
11597;DHT22;5854;48.072;16.286;2022-09-14T06:54:17;18.30;66.50
11597;DHT22;5854;48.072;16.286;2022-09-14T06:56:46;18.40;65.30
11597;DHT22;5854;48.072;16.286;2022-09-14T06:59:15;18.40;68.20
11597;DHT22;5854;48.072;16.286;2022-09-14T07:01:43;18.50;66.20
11597;DHT22;5854;48.072;16.286;2022-09-14T07:04:11;18.50;68.30
11597;DHT22;5854;48.072;16.286;2022-09-14T07:06:40;18.50;66.60
11597;DHT22;5854;48.072;16.286;2022-09-14T07:09:08;18.50;65.50
11597;DHT22;5854;48.072;16.286;2022-09-14T07:11:35;18.60;67.60
11597;DHT22;5854;48.072;16.286;2022-09-14T07:14:05;18.60;69.20
11597;DHT22;5854;48.072;16.286;2022-09-14T07:16:36;18.70;65.20
11597;DHT22;5854;48.072;16.286;2022-09-14T07:19:06;18.90;64.60
11597;DHT22;5854;48.072;16.286;2022-09-14T07:21:35;19.00;62.40
11597;DHT22;5854;48.072;16.286;2022-09-14T07:24:03;19.10;62.40
11597;DHT22;5854;48.072;16.286;2022-09-14T07:26:31;19.50;65.20
11597;DHT22;5854;48.072;16.286;2022-09-14T07:29:01;19.60;62.80
11597;DHT22;5854;48.072;16.286;2022-09-14T07:31:32;19.60;64.80
11597;DHT22;5854;48.072;16.286;2022-09-14T07:34:03;19.70;65.70
11597;DHT22;5854;48.072;16.286;2022-09-14T07:36:32;19.70;65.10
11597;DHT22;5854;48.072;16.286;2022-09-14T07:39:01;19.90;63.50
11597;DHT22;5854;48.072;16.286;2022-09-14T07:41:30;20.20;65.00
11597;DHT22;5854;48.072;16.286;2022-09-14T07:44:00;20.20;60.60
11597;DHT22;5854;48.072;16.286;2022-09-14T07:46:30;20.10;60.10
11597;DHT22;5854;48.072;16.286;2022-09-14T07:49:02;20.00;62.60
11597;DHT22;5854;48.072;16.286;2022-09-14T07:51:30;20.00;62.90
11597;DHT22;5854;48.072;16.286;2022-09-14T07:53:59;20.00;63.40
11597;DHT22;5854;48.072;16.286;2022-09-14T07:56:26;20.20;63.30
11597;DHT22;5854;48.072;16.286;2022-09-14T07:58:55;20.30;63.60
11597;DHT22;5854;48.072;16.286;2022-09-14T08:01:23;20.40;64.50
11597;DHT22;5854;48.072;16.286;2022-09-14T08:03:52;20.60;63.00
11597;DHT22;5854;48.072;16.286;2022-09-14T08:06:21;20.80;59.80
11597;DHT22;5854;48.072;16.286;2022-09-14T08:08:51;21.00;60.90
11597;DHT22;5854;48.072;16.286;2022-09-14T08:11:20;21.00;59.20
11597;DHT22;5854;48.072;16.286;2022-09-14T08:13:50;21.00;58.80
11597;DHT22;5854;48.072;16.286;2022-09-14T08:16:19;20.90;59.40
11597;DHT22;5854;48.072;16.286;2022-09-14T08:18:47;20.90;62.50
11597;DHT22;5854;48.072;16.286;2022-09-14T08:21:19;20.90;62.00
11597;DHT22;5854;48.072;16.286;2022-09-14T08:23:46;21.00;62.70
11597;DHT22;5854;48.072;16.286;2022-09-14T08:26:16;20.90;60.80
11597;DHT22;5854;48.072;16.286;2022-09-14T08:28:44;21.00;59.10
11597;DHT22;5854;48.072;16.286;2022-09-14T08:31:14;21.00;61.50
11597;DHT22;5854;48.072;16.286;2022-09-14T08:33:44;20.90;60.00
11597;DHT22;5854;48.072;16.286;2022-09-14T08:36:15;20.90;60.40
11597;DHT22;5854;48.072;16.286;2022-09-14T08:38:44;20.80;61.00
11597;DHT22;5854;48.072;16.286;2022-09-14T08:41:21;20.90;61.50
11597;DHT22;5854;48.072;16.286;2022-09-14T08:43:52;20.80;61.40
11597;DHT22;5854;48.072;16.286;2022-09-14T08:46:26;20.90;60.30
11597;DHT22;5854;48.072;16.286;2022-09-14T08:48:56;21.00;60.00
11597;DHT22;5854;48.072;16.286;2022-09-14T08:51:24;21.20;58.70
11597;DHT22;5854;48.072;16.286;2022-09-14T08:53:56;21.30;58.80
11597;DHT22;5854;48.072;16.286;2022-09-14T08:56:24;21.30;57.10
11597;DHT22;5854;48.072;16.286;2022-09-14T08:59:13;21.20;54.40
11597;DHT22;5854;48.072;16.286;2022-09-14T09:01:53;21.20;58.40
11597;DHT22;5854;48.072;16.286;2022-09-14T09:04:33;21.40;55.90
11597;DHT22;5854;48.072;16.286;2022-09-14T09:07:10;21.30;57.90
11597;DHT22;5854;48.072;16.286;2022-09-14T09:09:45;21.40;56.80
11597;DHT22;5854;48.072;16.286;2022-09-14T09:12:16;21.40;57.70
11597;DHT22;5854;48.072;16.286;2022-09-14T09:14:49;21.50;57.70
11597;DHT22;5854;48.072;16.286;2022-09-14T09:17:24;21.50;57.40
11597;DHT22;5854;48.072;16.286;2022-09-14T09:20:02;21.60;57.20
11597;DHT22;5854;48.072;16.286;2022-09-14T09:22:37;21.70;54.40
11597;DHT22;5854;48.072;16.286;2022-09-14T09:25:13;21.60;53.90
11597;DHT22;5854;48.072;16.286;2022-09-14T09:27:42;21.60;54.70
11597;DHT22;5854;48.072;16.286;2022-09-14T09:30:12;21.80;55.00
11597;DHT22;5854;48.072;16.286;2022-09-14T09:32:41;22.00;54.60
11597;DHT22;5854;48.072;16.286;2022-09-14T09:35:13;22.00;55.20
11597;DHT22;5854;48.072;16.286;2022-09-14T09:37:41;22.00;55.80
11597;DHT22;5854;48.072;16.286;2022-09-14T09:40:19;22.00;52.60
11597;DHT22;5854;48.072;16.286;2022-09-14T09:43:03;21.90;53.40
11597;DHT22;5854;48.072;16.286;2022-09-14T09:45:54;21.80;57.00
11597;DHT22;5854;48.072;16.286;2022-09-14T09:48:27;21.60;58.00
11597;DHT22;5854;48.072;16.286;2022-09-14T09:51:08;21.50;57.80
11597;DHT22;5854;48.072;16.286;2022-09-14T09:53:38;21.60;56.70
11597;DHT22;5854;48.072;16.286;2022-09-14T09:56:19;21.60;54.50
11597;DHT22;5854;48.072;16.286;2022-09-14T09:58:49;21.70;58.10
11597;DHT22;5854;48.072;16.286;2022-09-14T10:01:20;21.70;57.50
11597;DHT22;5854;48.072;16.286;2022-09-14T10:04:02;21.70;55.00
11597;DHT22;5854;48.072;16.286;2022-09-14T10:06:40;21.60;53.50
11597;DHT22;5854;48.072;16.286;2022-09-14T10:09:12;21.70;55.00
11597;DHT22;5854;48.072;16.286;2022-09-14T10:11:42;21.70;54.40
11597;DHT22;5854;48.072;16.286;2022-09-14T10:14:22;21.80;56.00
11597;DHT22;5854;48.072;16.286;2022-09-14T10:16:50;21.80;57.10
11597;DHT22;5854;48.072;16.286;2022-09-14T10:19:21;21.90;56.80
11597;DHT22;5854;48.072;16.286;2022-09-14T10:22:03;21.70;55.70
11597;DHT22;5854;48.072;16.286;2022-09-14T10:24:35;21.70;56.00
11597;DHT22;5854;48.072;16.286;2022-09-14T10:27:37;21.60;56.40
11597;DHT22;5854;48.072;16.286;2022-09-14T10:30:11;21.50;56.80
11597;DHT22;5854;48.072;16.286;2022-09-14T10:32:44;21.50;56.70
11597;DHT22;5854;48.072;16.286;2022-09-14T10:35:42;21.50;57.90
11597;DHT22;5854;48.072;16.286;2022-09-14T10:38:28;21.50;57.90
11597;DHT22;5854;48.072;16.286;2022-09-14T10:41:08;21.40;60.00
11597;DHT22;5854;48.072;16.286;2022-09-14T10:44:06;21.30;58.80
11597;DHT22;5854;48.072;16.286;2022-09-14T10:46:54;21.40;57.00
11597;DHT22;5854;48.072;16.286;2022-09-14T10:49:39;21.40;57.10
11597;DHT22;5854;48.072;16.286;2022-09-14T10:52:18;21.40;57.20
11597;DHT22;5854;48.072;16.286;2022-09-14T10:55:02;21.40;58.40
11597;DHT22;5854;48.072;16.286;2022-09-14T10:57:45;21.30;55.80
11597;DHT22;5854;48.072;16.286;2022-09-14T11:00:18;21.30;55.80
11597;DHT22;5854;48.072;16.286;2022-09-14T11:03:09;21.30;57.40
11597;DHT22;5854;48.072;16.286;2022-09-14T11:05:46;21.30;57.90
11597;DHT22;5854;48.072;16.286;2022-09-14T11:08:29;21.40;59.30
11597;DHT22;5854;48.072;16.286;2022-09-14T11:13:58;21.20;58.70
11597;DHT22;5854;48.072;16.286;2022-09-14T11:17:05;21.30;59.20
11597;DHT22;5854;48.072;16.286;2022-09-14T11:19:43;21.30;59.60
11597;DHT22;5854;48.072;16.286;2022-09-14T11:22:21;21.30;60.10
11597;DHT22;5854;48.072;16.286;2022-09-14T11:25:03;21.20;59.70
11597;DHT22;5854;48.072;16.286;2022-09-14T11:27:38;21.10;57.60
11597;DHT22;5854;48.072;16.286;2022-09-14T11:30:13;21.00;58.00
11597;DHT22;5854;48.072;16.286;2022-09-14T11:32:47;21.00;57.20
11597;DHT22;5854;48.072;16.286;2022-09-14T11:35:18;21.00;58.40
11597;DHT22;5854;48.072;16.286;2022-09-14T11:37:58;21.00;57.80
11597;DHT22;5854;48.072;16.286;2022-09-14T11:40:31;21.00;58.80
11597;DHT22;5854;48.072;16.286;2022-09-14T11:43:15;21.10;58.40
11597;DHT22;5854;48.072;16.286;2022-09-14T11:45:48;21.00;59.20
11597;DHT22;5854;48.072;16.286;2022-09-14T11:48:23;21.10;57.80
11597;DHT22;5854;48.072;16.286;2022-09-14T11:50:58;21.30;59.60
11597;DHT22;5854;48.072;16.286;2022-09-14T11:53:32;21.30;59.00
11597;DHT22;5854;48.072;16.286;2022-09-14T11:56:00;21.40;58.40
11597;DHT22;5854;48.072;16.286;2022-09-14T11:58:28;21.60;58.40
11597;DHT22;5854;48.072;16.286;2022-09-14T12:01:27;21.70;57.40
11597;DHT22;5854;48.072;16.286;2022-09-14T12:04:19;21.70;57.60
11597;DHT22;5854;48.072;16.286;2022-09-14T12:06:52;21.80;57.30
11597;DHT22;5854;48.072;16.286;2022-09-14T12:09:49;22.00;57.10
11597;DHT22;5854;48.072;16.286;2022-09-14T12:12:32;22.10;57.10
11597;DHT22;5854;48.072;16.286;2022-09-14T12:15:03;22.20;56.50
11597;DHT22;5854;48.072;16.286;2022-09-14T12:17:40;22.20;57.10
11597;DHT22;5854;48.072;16.286;2022-09-14T12:20:43;22.30;57.80
11597;DHT22;5854;48.072;16.286;2022-09-14T12:23:25;22.40;58.40
11597;DHT22;5854;48.072;16.286;2022-09-14T12:28:52;22.50;57.80
11597;DHT22;5854;48.072;16.286;2022-09-14T12:34:37;22.50;58.10
11597;DHT22;5854;48.072;16.286;2022-09-14T12:37:30;22.60;58.60
11597;DHT22;5854;48.072;16.286;2022-09-14T12:46:38;22.60;58.00
11597;DHT22;5854;48.072;16.286;2022-09-14T12:49:28;22.80;59.20
11597;DHT22;5854;48.072;16.286;2022-09-14T12:52:26;22.80;57.40
11597;DHT22;5854;48.072;16.286;2022-09-14T12:55:09;22.70;57.00
11597;DHT22;5854;48.072;16.286;2022-09-14T12:57:48;22.60;57.20
11597;DHT22;5854;48.072;16.286;2022-09-14T13:00:21;22.70;57.50
11597;DHT22;5854;48.072;16.286;2022-09-14T13:03:08;22.80;57.40
11597;DHT22;5854;48.072;16.286;2022-09-14T13:05:44;22.80;56.90
11597;DHT22;5854;48.072;16.286;2022-09-14T13:08:19;22.90;56.70
11597;DHT22;5854;48.072;16.286;2022-09-14T13:10:50;22.90;56.90
11597;DHT22;5854;48.072;16.286;2022-09-14T13:13:19;23.00;56.30
11597;DHT22;5854;48.072;16.286;2022-09-14T13:15:51;23.00;56.70
11597;DHT22;5854;48.072;16.286;2022-09-14T13:18:40;23.00;56.40
11597;DHT22;5854;48.072;16.286;2022-09-14T13:21:17;23.10;56.90
11597;DHT22;5854;48.072;16.286;2022-09-14T13:23:47;23.10;57.10
11597;DHT22;5854;48.072;16.286;2022-09-14T13:26:17;23.10;56.40
11597;DHT22;5854;48.072;16.286;2022-09-14T13:28:48;23.20;56.20
11597;DHT22;5854;48.072;16.286;2022-09-14T13:31:26;23.20;56.60
11597;DHT22;5854;48.072;16.286;2022-09-14T13:33:56;23.10;55.90
11597;DHT22;5854;48.072;16.286;2022-09-14T13:36:26;23.20;56.50
11597;DHT22;5854;48.072;16.286;2022-09-14T13:38:57;23.20;56.30
11597;DHT22;5854;48.072;16.286;2022-09-14T13:41:26;23.20;55.40
11597;DHT22;5854;48.072;16.286;2022-09-14T13:43:55;23.30;56.80
11597;DHT22;5854;48.072;16.286;2022-09-14T13:46:25;23.30;54.50
11597;DHT22;5854;48.072;16.286;2022-09-14T13:48:53;23.30;56.30
11597;DHT22;5854;48.072;16.286;2022-09-14T13:51:22;23.50;56.90
11597;DHT22;5854;48.072;16.286;2022-09-14T13:53:52;23.50;53.70
11597;DHT22;5854;48.072;16.286;2022-09-14T13:56:25;23.50;56.50
11597;DHT22;5854;48.072;16.286;2022-09-14T13:59:17;23.50;54.10
11597;DHT22;5854;48.072;16.286;2022-09-14T14:01:55;23.60;56.00
11597;DHT22;5854;48.072;16.286;2022-09-14T14:04:29;23.60;55.80
11597;DHT22;5854;48.072;16.286;2022-09-14T14:07:14;23.60;54.70
11597;DHT22;5854;48.072;16.286;2022-09-14T14:09:46;23.60;55.90
11597;DHT22;5854;48.072;16.286;2022-09-14T14:12:25;23.60;56.80
11597;DHT22;5854;48.072;16.286;2022-09-14T14:14:57;23.70;56.60
11597;DHT22;5854;48.072;16.286;2022-09-14T14:17:35;23.80;55.50
11597;DHT22;5854;48.072;16.286;2022-09-14T14:20:31;24.00;55.30
11597;DHT22;5854;48.072;16.286;2022-09-14T14:23:14;24.20;53.90
11597;DHT22;5854;48.072;16.286;2022-09-14T14:25:48;24.30;54.50
11597;DHT22;5854;48.072;16.286;2022-09-14T14:28:22;24.40;54.10
11597;DHT22;5854;48.072;16.286;2022-09-14T14:30:51;24.40;52.90
11597;DHT22;5854;48.072;16.286;2022-09-14T14:33:19;24.50;52.90
11597;DHT22;5854;48.072;16.286;2022-09-14T14:35:48;24.50;53.30
11597;DHT22;5854;48.072;16.286;2022-09-14T14:38:16;24.50;52.10
11597;DHT22;5854;48.072;16.286;2022-09-14T14:40:44;24.50;51.90
11597;DHT22;5854;48.072;16.286;2022-09-14T14:43:16;24.40;51.60
11597;DHT22;5854;48.072;16.286;2022-09-14T14:45:46;24.40;52.40
11597;DHT22;5854;48.072;16.286;2022-09-14T14:48:14;24.40;52.70
11597;DHT22;5854;48.072;16.286;2022-09-14T14:53:11;24.40;54.20
11597;DHT22;5854;48.072;16.286;2022-09-14T15:03:27;24.30;53.30
11597;DHT22;5854;48.072;16.286;2022-09-14T15:05:57;24.20;53.40
11597;DHT22;5854;48.072;16.286;2022-09-14T15:08:24;24.20;53.00
11597;DHT22;5854;48.072;16.286;2022-09-14T15:10:55;24.20;53.40
11597;DHT22;5854;48.072;16.286;2022-09-14T15:13:23;24.20;53.40
11597;DHT22;5854;48.072;16.286;2022-09-14T15:15:50;24.20;53.90
11597;DHT22;5854;48.072;16.286;2022-09-14T15:23:39;24.20;53.30
11597;DHT22;5854;48.072;16.286;2022-09-14T15:26:07;24.40;53.30
11597;DHT22;5854;48.072;16.286;2022-09-14T15:28:34;24.30;53.00
11597;DHT22;5854;48.072;16.286;2022-09-14T15:31:04;24.40;53.40
11597;DHT22;5854;48.072;16.286;2022-09-14T15:33:31;24.30;53.60
11597;DHT22;5854;48.072;16.286;2022-09-14T15:35:59;24.30;53.80
11597;DHT22;5854;48.072;16.286;2022-09-14T15:38:28;24.20;54.20
11597;DHT22;5854;48.072;16.286;2022-09-14T15:40:56;24.20;54.80
11597;DHT22;5854;48.072;16.286;2022-09-14T15:43:24;24.20;55.80
11597;DHT22;5854;48.072;16.286;2022-09-14T15:45:51;24.10;54.90
11597;DHT22;5854;48.072;16.286;2022-09-14T16:04:03;24.00;56.60
11597;DHT22;5854;48.072;16.286;2022-09-14T16:14:31;23.90;58.50
11597;DHT22;5854;48.072;16.286;2022-09-14T16:17:00;23.90;58.80
11597;DHT22;5854;48.072;16.286;2022-09-14T16:19:31;23.80;59.70
11597;DHT22;5854;48.072;16.286;2022-09-14T16:21:59;23.80;59.60
11597;DHT22;5854;48.072;16.286;2022-09-14T16:27:05;23.60;61.70
11597;DHT22;5854;48.072;16.286;2022-09-14T16:29:32;23.60;61.50
11597;DHT22;5854;48.072;16.286;2022-09-14T16:31:59;23.50;63.80
11597;DHT22;5854;48.072;16.286;2022-09-14T16:34:29;23.50;63.70
11597;DHT22;5854;48.072;16.286;2022-09-14T16:36:56;23.40;63.30
11597;DHT22;5854;48.072;16.286;2022-09-14T16:39:26;23.40;64.10
11597;DHT22;5854;48.072;16.286;2022-09-14T16:41:54;23.30;64.90
11597;DHT22;5854;48.072;16.286;2022-09-14T16:44:24;23.30;65.40
11597;DHT22;5854;48.072;16.286;2022-09-14T16:46:53;23.30;66.60
11597;DHT22;5854;48.072;16.286;2022-09-14T16:49:22;23.20;66.50
11597;DHT22;5854;48.072;16.286;2022-09-14T16:51:51;23.10;67.80
11597;DHT22;5854;48.072;16.286;2022-09-14T16:54:19;23.10;68.00
11597;DHT22;5854;48.072;16.286;2022-09-14T16:56:48;23.10;67.70
11597;DHT22;5854;48.072;16.286;2022-09-14T16:59:15;23.00;68.30